Terminal Aerodrome Forecast
Issued by NWS Corpus Christi, TX

Home | Current Version | Previous Version | Text Only | Print | Product List | Glossary On
Versions: 1 2 3 4 5 6 7 8 9 10 11 12 13 14 15 16 17
000
FTUS44 KCRP 261742
TAFCRP
TAF
KCRP 261742Z 2618/2718 15015G20KT P6SM VCSH BKN045
     FM270100 16011KT P6SM BKN050
     FM270300 16009KT 6SM BR BKN013
     FM270700 16009KT 6SM BR BKN008
     FM271100 16006KT 4SM BR FEW003 BKN006
     FM271600 16007KT P6SM FEW006 BKN012=

USA.gov is the U.S. government's official web portal to all federal, state and local government web resources and services.